Terminal Aerodrome Forecast
Issued by NWS Twin Cities, MN

Home | Current Version | Previous Version | Text Only | Print | Product List | Glossary Off
Versions: 1 2 3 4 5 6 7 8 9 10 11 12 13 14 15 16 17 18 19

000
FTUS43 KMPX 290953 AAA
TAFSTC
TAF AMD
KSTC 290953Z 2910/3006 14003KT 3SM BR SKC
      TEMPO 2910/2912 1 1/2SM BR SKC
     FM291200 18008KT P6SM SKC=

USA.gov is the U.S. government's official web portal to all federal, state and local government web resources and services.